Houston, TX

4:59 AM CST on January 18, 2018 (GMT -0600)
Houston

Weather History for KTME - April, 2013

Change the Weather History Date:

Tuesday, April 16, 2013

  Actual Average (KSGR) Record (KSGR)
Temperature  
Mean Temperature 75 °F -  
Max Temperature 82 °F 79 °F 89 °F (2006)
Min Temperature 68 °F 58 °F 42 °F (2014)
Cooling Degree Days 10    
Growing Degree Days 25 (Base 50)    
Moisture  
Dew Point 71 °F    
Average Humidity 88    
Maximum Humidity 100    
Minimum Humidity 62    
Precipitation  
Precipitation 0.00 in - - ()
Sea Level Pressure  
Sea Level Pressure 29.90 in    
Wind  
Wind Speed 10 mph (ESE)    
Max Wind Speed 20 mph    
Max Gust Speed 26 mph    
Visibility 4 miles    
Events      
Averages and records for this station are not official NWS values.
T = Trace of Precipitation, MM = Missing Value Source: NWS Daily Summary

Daily Weather History Graph

Daily Weather History Graph

Search for Another Location

Airport or City:

Trip Planner

Search our weather history database for the weather conditions in past years. The results will help you decide how hot, cold, wet, or windy it might be!

Date:

Astronomy

Apr. 16, 2013 Rise Set
Actual Time 6:55 AM CDT 7:51 PM CDT
Civil Twilight 6:31 AM CDT 8:16 PM CDT
Nautical Twilight 6:02 AM CDT 8:45 PM CDT
Astronomical Twilight 5:32 AM CDT 9:14 PM CDT
Moon 11:26 AM CDT (4/16) 12:38 AM CDT (4/16)
Length of Visible Light 13h 45m
Length of Day
12h 55m
Waxing Crescent, 33% of the Moon is Illuminated
Apr 16
Waxing Crescent
Apr 18
First Quarter
Apr 25
Full
May 2
Last Quarter
May 9
New

Hourly Weather History & Observations

Time (CDT) Temp. Heat Index Dew Point Humidity Pressure Visibility Wind Dir Wind Speed Gust Speed Precip Events Conditions
12:15 AM 73.4 °F - 71.6 °F 94% 29.86 in 4.0 mi ESE 9.2 mph - N/A   Mostly Cloudy
12:35 AM 73.4 °F - 71.6 °F 94% 29.87 in 4.0 mi ESE 8.1 mph - N/A   Overcast
12:55 AM 73.4 °F - 73.4 °F 100% 29.87 in 4.0 mi ESE 9.2 mph - N/A   Overcast
1:15 AM 73.4 °F - 73.4 °F 100% 29.87 in 4.0 mi ESE 8.1 mph - N/A   Overcast
1:35 AM 73.4 °F - 73.4 °F 100% 29.86 in 4.0 mi ESE 8.1 mph - N/A   Overcast
1:55 AM 73.4 °F - 73.4 °F 100% 29.85 in 4.0 mi ESE 9.2 mph - N/A   Overcast
2:15 AM 73.4 °F - 73.4 °F 100% 29.85 in 4.0 mi ESE 8.1 mph - N/A   Overcast
2:35 AM 71.6 °F - 71.6 °F 100% 29.85 in 4.0 mi SE 9.2 mph - N/A   Overcast
2:55 AM 71.6 °F - 71.6 °F 100% 29.85 in 4.0 mi SE 9.2 mph - N/A   Overcast
3:15 AM 71.6 °F - 71.6 °F 100% 29.85 in 5.0 mi SE 9.2 mph - N/A   Overcast
3:35 AM 71.6 °F - 71.6 °F 100% 29.85 in 5.0 mi SE 6.9 mph - N/A   Overcast
3:55 AM 71.6 °F - 71.6 °F 100% 29.85 in 5.0 mi SE 8.1 mph - N/A   Overcast
4:15 AM 71.6 °F - 71.6 °F 100% 29.85 in 5.0 mi SE 9.2 mph - N/A   Overcast
4:35 AM 71.6 °F - 71.6 °F 100% 29.86 in 4.0 mi SE 6.9 mph - N/A   Overcast
4:55 AM 71.6 °F - 71.6 °F 100% 29.85 in 4.0 mi SE 6.9 mph - N/A   Overcast
5:15 AM 71.6 °F - 71.6 °F 100% 29.86 in 4.0 mi SE 5.8 mph - N/A   Overcast
5:35 AM 71.6 °F - 71.6 °F 100% 29.86 in 3.0 mi ESE 8.1 mph - N/A   Overcast
5:55 AM 71.6 °F - 71.6 °F 100% 29.86 in 3.0 mi SE 6.9 mph - N/A   Mostly Cloudy
6:15 AM 69.8 °F - 69.8 °F 100% 29.87 in 3.0 mi SE 5.8 mph - N/A   Scattered Clouds
6:35 AM 68.0 °F - 68.0 °F 100% 29.88 in 2.5 mi Calm Calm - N/A   Partly Cloudy
6:55 AM 68.0 °F - 68.0 °F 100% 29.88 in 2.0 mi Calm Calm - N/A   Mostly Cloudy
7:15 AM 68.0 °F - 68.0 °F 100% 29.90 in 1.0 mi Calm Calm - N/A   Overcast
7:35 AM 68.0 °F - 68.0 °F 100% 29.90 in 1.0 mi Calm Calm - N/A   Overcast
7:55 AM 69.8 °F - 69.8 °F 100% 29.91 in 1.2 mi East 5.8 mph - N/A   Mostly Cloudy
8:15 AM 71.6 °F - 71.6 °F 100% 29.91 in 1.8 mi East 6.9 mph - N/A   Clear
8:35 AM 73.4 °F - 73.4 °F 100% 29.92 in 2.5 mi ESE 8.1 mph - N/A   Partly Cloudy
8:55 AM 73.4 °F - 71.6 °F 94% 29.92 in 3.0 mi ESE 11.5 mph - N/A   Partly Cloudy
9:15 AM 73.4 °F - 71.6 °F 94% 29.94 in 3.0 mi SE 10.4 mph - N/A   Partly Cloudy
9:35 AM 75.2 °F - 71.6 °F 89% 29.94 in 3.0 mi SE 9.2 mph - N/A   Scattered Clouds
9:55 AM 75.2 °F - 69.8 °F 83% 29.94 in 3.0 mi SE 10.4 mph - N/A   Haze
10:15 AM 75.2 °F - 71.6 °F 89% 29.94 in 3.0 mi SE 11.5 mph - N/A   Haze
10:35 AM 77.0 °F - 71.6 °F 83% 29.95 in 3.0 mi SE 16.1 mph 19.6 mph N/A   Haze
10:55 AM 78.8 °F - 69.8 °F 74% 29.95 in 3.0 mi SE 12.7 mph - N/A   Haze
11:15 AM 78.8 °F - 69.8 °F 74% 29.95 in 4.0 mi ESE 13.8 mph 17.3 mph N/A   Haze
11:35 AM 80.6 °F 83.2 °F 68.0 °F 65% 29.95 in 4.0 mi SE 10.4 mph 19.6 mph N/A   Haze
11:55 AM 82.4 °F 86.3 °F 69.8 °F 66% 29.95 in 3.0 mi SSE 13.8 mph 18.4 mph N/A   Haze
12:15 PM 80.6 °F 83.2 °F 68.0 °F 65% 29.94 in 4.0 mi ESE 13.8 mph 18.4 mph N/A   Haze
12:55 PM 82.4 °F 86.3 °F 69.8 °F 66% 29.94 in 4.0 mi ESE 10.4 mph 20.7 mph N/A   Haze
1:15 PM 82.4 °F 85.4 °F 68.0 °F 62% 29.93 in 4.0 mi ESE 12.7 mph 18.4 mph N/A   Haze
1:35 PM 82.4 °F 86.3 °F 69.8 °F 66% 29.92 in 5.0 mi ESE 16.1 mph - N/A   Haze
1:55 PM 82.4 °F 86.3 °F 69.8 °F 66% 29.92 in 5.0 mi ESE 16.1 mph 20.7 mph N/A   Haze
2:15 PM 82.4 °F 85.4 °F 68.0 °F 62% 29.91 in 5.0 mi SE 13.8 mph 20.7 mph N/A   Haze
2:35 PM 82.4 °F 85.4 °F 68.0 °F 62% 29.91 in 5.0 mi ESE 16.1 mph - N/A   Haze
2:55 PM 82.4 °F 85.4 °F 68.0 °F 62% 29.90 in 5.0 mi East 16.1 mph 23.0 mph N/A   Haze
3:15 PM 80.6 °F 83.9 °F 69.8 °F 70% 29.90 in 5.0 mi SE 19.6 mph - N/A   Haze
3:35 PM 80.6 °F 83.2 °F 68.0 °F 65% 29.91 in 5.0 mi ESE 16.1 mph - N/A   Haze
3:55 PM 80.6 °F 83.2 °F 68.0 °F 65% 29.90 in 5.0 mi ESE 13.8 mph 23.0 mph N/A   Haze
4:15 PM 78.8 °F - 69.8 °F 74% 29.89 in 5.0 mi ESE 16.1 mph - N/A   Haze
4:35 PM 78.8 °F - 69.8 °F 74% 29.89 in 5.0 mi East 15.0 mph - N/A   Haze
4:55 PM 80.6 °F 83.9 °F 69.8 °F 70% 29.89 in 5.0 mi East 16.1 mph 20.7 mph N/A   Haze
5:15 PM 80.6 °F 83.9 °F 69.8 °F 70% 29.90 in 5.0 mi ESE 17.3 mph 21.9 mph N/A   Haze
5:35 PM 78.8 °F - 69.8 °F 74% 29.89 in 5.0 mi ESE 17.3 mph 23.0 mph N/A   Haze
5:55 PM 78.8 °F - 71.6 °F 78% 29.90 in 5.0 mi ESE 17.3 mph 21.9 mph N/A   Haze
6:15 PM 78.8 °F - 71.6 °F 78% 29.90 in 5.0 mi ESE 15.0 mph 18.4 mph N/A   Haze
6:35 PM 77.0 °F - 71.6 °F 83% 29.90 in 5.0 mi ESE 18.4 mph 23.0 mph N/A   Haze
6:55 PM 77.0 °F - 71.6 °F 83% 29.90 in 5.0 mi ESE 18.4 mph - N/A   Haze
7:15 PM 77.0 °F - 73.4 °F 89% 29.90 in 5.0 mi ESE 16.1 mph - N/A   Overcast
7:35 PM 75.2 °F - 73.4 °F 94% 29.89 in 5.0 mi ESE 18.4 mph - N/A   Overcast
7:55 PM 75.2 °F - 73.4 °F 94% 29.90 in 6.0 mi ESE 16.1 mph - N/A   Overcast
8:15 PM 75.2 °F - 75.2 °F 100% 29.90 in 5.0 mi ESE 16.1 mph 26.5 mph N/A   Overcast
8:35 PM 75.2 °F - 75.2 °F 100% 29.90 in 5.0 mi ESE 18.4 mph 24.2 mph N/A   Overcast
8:55 PM 75.2 °F - 75.2 °F 100% 29.91 in 4.0 mi ESE 15.0 mph - N/A   Overcast
9:15 PM 73.4 °F - 73.4 °F 100% 29.91 in 3.0 mi ESE 17.3 mph - N/A   Overcast
9:35 PM 73.4 °F - 73.4 °F 100% 29.90 in 3.0 mi ESE 15.0 mph 24.2 mph N/A   Overcast
9:55 PM 75.2 °F - 75.2 °F 100% 29.89 in 3.0 mi ESE 19.6 mph 25.3 mph N/A   Overcast
10:15 PM 75.2 °F - 75.2 °F 100% 29.90 in 3.0 mi ESE 10.4 mph 23.0 mph N/A   Overcast
10:35 PM 75.2 °F - 73.4 °F 94% 29.92 in 4.0 mi ESE 12.7 mph 18.4 mph N/A   Overcast
10:55 PM 75.2 °F - 73.4 °F 94% 29.93 in 4.0 mi SE 12.7 mph - N/A   Overcast
11:15 PM 75.2 °F - 73.4 °F 94% 29.94 in 4.0 mi SE 10.4 mph - N/A   Mostly Cloudy
11:35 PM 75.2 °F - 73.4 °F 94% 29.94 in 3.0 mi SSE 6.9 mph - N/A   Overcast
11:55 PM 75.2 °F - 73.4 °F 94% 29.93 in 5.0 mi SE 9.2 mph - N/A   Overcast